sensor_id;sensor_type;location;lat;lon;timestamp;temperature;humidity
39779;DHT22;25454;49.878;8.618;2023-04-30T00:01:17;12.60;99.90
39779;DHT22;25454;49.878;8.618;2023-04-30T00:06:18;12.60;99.90
39779;DHT22;25454;49.878;8.618;2023-04-30T00:11:18;12.50;99.90
39779;DHT22;25454;49.878;8.618;2023-04-30T00:16:19;12.50;99.90
39779;DHT22;25454;49.878;8.618;2023-04-30T00:21:19;12.50;99.90
39779;DHT22;25454;49.878;8.618;2023-04-30T00:26:20;12.50;99.90
39779;DHT22;25454;49.878;8.618;2023-04-30T00:31:20;12.50;99.90
39779;DHT22;25454;49.878;8.618;2023-04-30T00:36:21;12.50;99.90
39779;DHT22;25454;49.878;8.618;2023-04-30T00:41:22;12.40;99.90
39779;DHT22;25454;49.878;8.618;2023-04-30T00:46:23;12.50;99.90
39779;DHT22;25454;49.878;8.618;2023-04-30T00:51:25;12.40;99.90
39779;DHT22;25454;49.878;8.618;2023-04-30T00:56:26;12.40;99.90
39779;DHT22;25454;49.878;8.618;2023-04-30T01:01:26;12.40;99.90
39779;DHT22;25454;49.878;8.618;2023-04-30T01:06:31;12.40;99.90
39779;DHT22;25454;49.878;8.618;2023-04-30T01:12:04;12.30;99.90
39779;DHT22;25454;49.878;8.618;2023-04-30T01:23:08;12.30;99.90
39779;DHT22;25454;49.878;8.618;2023-04-30T01:28:04;12.30;99.90
39779;DHT22;25454;49.878;8.618;2023-04-30T01:33:06;12.30;99.90
39779;DHT22;25454;49.878;8.618;2023-04-30T01:38:24;12.30;99.90
39779;DHT22;25454;49.878;8.618;2023-04-30T01:48:42;12.30;99.90
39779;DHT22;25454;49.878;8.618;2023-04-30T01:53:46;12.30;99.90
39779;DHT22;25454;49.878;8.618;2023-04-30T01:58:48;12.20;99.90
39779;DHT22;25454;49.878;8.618;2023-04-30T02:03:49;12.20;99.90
39779;DHT22;25454;49.878;8.618;2023-04-30T02:08:49;12.20;99.90
39779;DHT22;25454;49.878;8.618;2023-04-30T02:13:50;12.10;99.90
39779;DHT22;25454;49.878;8.618;2023-04-30T02:18:51;12.10;99.90
39779;DHT22;25454;49.878;8.618;2023-04-30T02:23:54;12.10;99.90
39779;DHT22;25454;49.878;8.618;2023-04-30T02:28:54;12.10;99.90
39779;DHT22;25454;49.878;8.618;2023-04-30T02:33:55;12.10;99.90
39779;DHT22;25454;49.878;8.618;2023-04-30T02:38:56;12.00;99.90
39779;DHT22;25454;49.878;8.618;2023-04-30T02:43:56;12.10;99.90
39779;DHT22;25454;49.878;8.618;2023-04-30T02:48:57;11.90;99.90
39779;DHT22;25454;49.878;8.618;2023-04-30T02:53:57;11.90;99.90
39779;DHT22;25454;49.878;8.618;2023-04-30T02:58:58;11.80;99.90
39779;DHT22;25454;49.878;8.618;2023-04-30T03:03:58;11.80;99.90
39779;DHT22;25454;49.878;8.618;2023-04-30T03:08:59;11.80;99.90
39779;DHT22;25454;49.878;8.618;2023-04-30T03:14:00;11.70;99.90
39779;DHT22;25454;49.878;8.618;2023-04-30T03:19:00;11.70;99.90
39779;DHT22;25454;49.878;8.618;2023-04-30T03:24:01;11.70;99.90
39779;DHT22;25454;49.878;8.618;2023-04-30T03:29:01;11.70;99.90
39779;DHT22;25454;49.878;8.618;2023-04-30T03:34:02;11.60;99.90
39779;DHT22;25454;49.878;8.618;2023-04-30T03:39:03;11.70;99.90
39779;DHT22;25454;49.878;8.618;2023-04-30T03:44:04;11.60;99.90
39779;DHT22;25454;49.878;8.618;2023-04-30T03:49:05;11.60;99.90
39779;DHT22;25454;49.878;8.618;2023-04-30T03:54:06;11.50;99.90
39779;DHT22;25454;49.878;8.618;2023-04-30T03:59:06;11.50;99.90
39779;DHT22;25454;49.878;8.618;2023-04-30T04:04:08;11.40;99.90
39779;DHT22;25454;49.878;8.618;2023-04-30T04:09:08;11.40;99.90
39779;DHT22;25454;49.878;8.618;2023-04-30T04:14:09;11.40;99.90
39779;DHT22;25454;49.878;8.618;2023-04-30T04:19:09;11.30;99.90
39779;DHT22;25454;49.878;8.618;2023-04-30T04:24:12;11.30;99.90
39779;DHT22;25454;49.878;8.618;2023-04-30T04:29:12;11.40;99.90
39779;DHT22;25454;49.878;8.618;2023-04-30T04:34:13;11.30;99.90
39779;DHT22;25454;49.878;8.618;2023-04-30T04:39:13;11.30;99.90
39779;DHT22;25454;49.878;8.618;2023-04-30T04:44:14;11.20;99.90
39779;DHT22;25454;49.878;8.618;2023-04-30T04:49:15;11.30;99.90
39779;DHT22;25454;49.878;8.618;2023-04-30T04:54:15;11.30;99.90
39779;DHT22;25454;49.878;8.618;2023-04-30T04:59:16;11.40;99.90
39779;DHT22;25454;49.878;8.618;2023-04-30T05:04:18;11.40;99.90
39779;DHT22;25454;49.878;8.618;2023-04-30T05:09:18;11.50;99.90
39779;DHT22;25454;49.878;8.618;2023-04-30T05:14:19;11.50;99.90
39779;DHT22;25454;49.878;8.618;2023-04-30T05:19:20;11.50;99.90
39779;DHT22;25454;49.878;8.618;2023-04-30T05:24:21;11.60;99.90
39779;DHT22;25454;49.878;8.618;2023-04-30T05:29:22;11.70;99.90
39779;DHT22;25454;49.878;8.618;2023-04-30T05:34:22;11.80;99.90
39779;DHT22;25454;49.878;8.618;2023-04-30T05:39:23;12.10;99.90
39779;DHT22;25454;49.878;8.618;2023-04-30T05:44:23;12.30;99.90
39779;DHT22;25454;49.878;8.618;2023-04-30T05:49:24;12.80;99.90
39779;DHT22;25454;49.878;8.618;2023-04-30T05:54:28;13.20;99.90
39779;DHT22;25454;49.878;8.618;2023-04-30T05:59:29;13.20;99.90
39779;DHT22;25454;49.878;8.618;2023-04-30T06:04:30;13.10;99.90
39779;DHT22;25454;49.878;8.618;2023-04-30T06:09:31;14.40;99.90
39779;DHT22;25454;49.878;8.618;2023-04-30T06:14:31;16.40;99.90
39779;DHT22;25454;49.878;8.618;2023-04-30T06:19:32;16.30;99.90
39779;DHT22;25454;49.878;8.618;2023-04-30T06:24:32;17.20;99.90
39779;DHT22;25454;49.878;8.618;2023-04-30T06:29:33;18.50;99.90
39779;DHT22;25454;49.878;8.618;2023-04-30T06:34:34;19.70;99.90
39779;DHT22;25454;49.878;8.618;2023-04-30T06:39:34;20.60;99.20
39779;DHT22;25454;49.878;8.618;2023-04-30T06:44:35;21.50;95.80
39779;DHT22;25454;49.878;8.618;2023-04-30T06:49:36;21.80;93.30
39779;DHT22;25454;49.878;8.618;2023-04-30T06:54:36;22.50;89.30
39779;DHT22;25454;49.878;8.618;2023-04-30T06:59:37;21.50;89.40
39779;DHT22;25454;49.878;8.618;2023-04-30T07:04:38;19.20;92.50
39779;DHT22;25454;49.878;8.618;2023-04-30T07:09:39;17.70;94.90
39779;DHT22;25454;49.878;8.618;2023-04-30T07:14:39;17.00;97.90
39779;DHT22;25454;49.878;8.618;2023-04-30T07:19:40;17.30;97.80
39779;DHT22;25454;49.878;8.618;2023-04-30T07:24:41;17.50;96.10
39779;DHT22;25454;49.878;8.618;2023-04-30T07:29:43;19.60;91.90
39779;DHT22;25454;49.878;8.618;2023-04-30T07:34:43;21.60;83.40
39779;DHT22;25454;49.878;8.618;2023-04-30T07:39:47;22.70;76.80
39779;DHT22;25454;49.878;8.618;2023-04-30T07:44:51;23.50;69.70
39779;DHT22;25454;49.878;8.618;2023-04-30T07:49:52;24.60;62.60
39779;DHT22;25454;49.878;8.618;2023-04-30T07:54:52;24.60;61.30
39779;DHT22;25454;49.878;8.618;2023-04-30T07:59:53;24.70;59.60
39779;DHT22;25454;49.878;8.618;2023-04-30T08:04:54;24.70;57.40
39779;DHT22;25454;49.878;8.618;2023-04-30T08:09:54;25.40;57.40
39779;DHT22;25454;49.878;8.618;2023-04-30T08:15:02;27.20;53.50
39779;DHT22;25454;49.878;8.618;2023-04-30T08:20:04;27.40;51.40
39779;DHT22;25454;49.878;8.618;2023-04-30T08:25:05;27.90;49.80
39779;DHT22;25454;49.878;8.618;2023-04-30T08:30:06;28.00;47.90
39779;DHT22;25454;49.878;8.618;2023-04-30T08:35:08;26.00;51.60
39779;DHT22;25454;49.878;8.618;2023-04-30T08:40:09;26.00;49.10
39779;DHT22;25454;49.878;8.618;2023-04-30T08:45:11;26.00;50.20
39779;DHT22;25454;49.878;8.618;2023-04-30T08:50:13;26.40;48.00
39779;DHT22;25454;49.878;8.618;2023-04-30T08:55:14;26.50;45.80
39779;DHT22;25454;49.878;8.618;2023-04-30T09:00:15;26.00;46.20
39779;DHT22;25454;49.878;8.618;2023-04-30T09:05:15;25.30;46.80
39779;DHT22;25454;49.878;8.618;2023-04-30T09:10:17;26.10;46.30
39779;DHT22;25454;49.878;8.618;2023-04-30T09:15:18;27.90;45.50
39779;DHT22;25454;49.878;8.618;2023-04-30T09:20:19;29.40;41.60
39779;DHT22;25454;49.878;8.618;2023-04-30T09:25:40;29.80;40.30
39779;DHT22;25454;49.878;8.618;2023-04-30T09:30:41;30.20;40.00
39779;DHT22;25454;49.878;8.618;2023-04-30T09:35:42;29.60;38.70
39779;DHT22;25454;49.878;8.618;2023-04-30T09:40:43;29.80;38.80
39779;DHT22;25454;49.878;8.618;2023-04-30T09:45:46;30.00;38.30
39779;DHT22;25454;49.878;8.618;2023-04-30T09:50:50;30.10;38.00
39779;DHT22;25454;49.878;8.618;2023-04-30T09:55:50;29.80;37.50
39779;DHT22;25454;49.878;8.618;2023-04-30T10:00:52;29.80;37.60
39779;DHT22;25454;49.878;8.618;2023-04-30T10:05:54;30.60;35.60
39779;DHT22;25454;49.878;8.618;2023-04-30T10:11:06;32.40;33.20
39779;DHT22;25454;49.878;8.618;2023-04-30T10:21:26;29.90;35.10
39779;DHT22;25454;49.878;8.618;2023-04-30T10:26:28;29.30;35.60
39779;DHT22;25454;49.878;8.618;2023-04-30T10:31:30;30.60;33.10
39779;DHT22;25454;49.878;8.618;2023-04-30T10:36:48;29.30;32.40
39779;DHT22;25454;49.878;8.618;2023-04-30T10:41:49;28.30;34.30
39779;DHT22;25454;49.878;8.618;2023-04-30T10:46:58;28.20;35.30
39779;DHT22;25454;49.878;8.618;2023-04-30T10:52:01;27.20;34.80
39779;DHT22;25454;49.878;8.618;2023-04-30T10:57:12;27.80;35.00
39779;DHT22;25454;49.878;8.618;2023-04-30T11:02:15;27.70;36.40
39779;DHT22;25454;49.878;8.618;2023-04-30T11:07:32;27.60;34.80
39779;DHT22;25454;49.878;8.618;2023-04-30T11:12:33;27.80;35.00
39779;DHT22;25454;49.878;8.618;2023-04-30T11:17:33;27.60;35.40
39779;DHT22;25454;49.878;8.618;2023-04-30T11:22:34;27.40;35.80
39779;DHT22;25454;49.878;8.618;2023-04-30T11:27:40;26.80;37.40
39779;DHT22;25454;49.878;8.618;2023-04-30T11:32:47;26.40;38.00
39779;DHT22;25454;49.878;8.618;2023-04-30T11:37:48;26.20;38.20
39779;DHT22;25454;49.878;8.618;2023-04-30T11:42:50;24.80;40.80
39779;DHT22;25454;49.878;8.618;2023-04-30T11:47:53;25.00;42.50
39779;DHT22;25454;49.878;8.618;2023-04-30T11:52:58;24.20;42.90
39779;DHT22;25454;49.878;8.618;2023-04-30T11:58:02;23.60;43.50
39779;DHT22;25454;49.878;8.618;2023-04-30T12:03:03;23.60;44.90
39779;DHT22;25454;49.878;8.618;2023-04-30T12:08:04;23.40;44.80
39779;DHT22;25454;49.878;8.618;2023-04-30T12:13:15;22.90;45.70
39779;DHT22;25454;49.878;8.618;2023-04-30T12:18:16;22.30;47.40
39779;DHT22;25454;49.878;8.618;2023-04-30T12:23:16;22.20;46.70
39779;DHT22;25454;49.878;8.618;2023-04-30T12:28:22;22.20;45.40
39779;DHT22;25454;49.878;8.618;2023-04-30T12:33:23;21.50;44.00
39779;DHT22;25454;49.878;8.618;2023-04-30T12:38:23;21.20;47.00
39779;DHT22;25454;49.878;8.618;2023-04-30T12:43:24;21.30;46.00
39779;DHT22;25454;49.878;8.618;2023-04-30T12:48:25;21.40;47.70
39779;DHT22;25454;49.878;8.618;2023-04-30T12:53:26;21.40;48.00
39779;DHT22;25454;49.878;8.618;2023-04-30T12:58:30;21.50;45.90
39779;DHT22;25454;49.878;8.618;2023-04-30T13:03:30;21.40;46.00
39779;DHT22;25454;49.878;8.618;2023-04-30T13:08:31;20.90;46.20
39779;DHT22;25454;49.878;8.618;2023-04-30T13:13:32;21.10;46.10
39779;DHT22;25454;49.878;8.618;2023-04-30T13:18:32;20.90;45.70
39779;DHT22;25454;49.878;8.618;2023-04-30T13:23:33;20.70;47.30
39779;DHT22;25454;49.878;8.618;2023-04-30T13:28:34;20.50;46.20
39779;DHT22;25454;49.878;8.618;2023-04-30T13:33:34;20.70;47.50
39779;DHT22;25454;49.878;8.618;2023-04-30T13:38:35;20.70;46.90
39779;DHT22;25454;49.878;8.618;2023-04-30T13:43:36;21.10;47.20
39779;DHT22;25454;49.878;8.618;2023-04-30T13:48:37;20.90;47.30
39779;DHT22;25454;49.878;8.618;2023-04-30T13:53:38;21.10;46.90
39779;DHT22;25454;49.878;8.618;2023-04-30T13:58:39;21.40;47.30
39779;DHT22;25454;49.878;8.618;2023-04-30T14:03:40;21.10;47.50
39779;DHT22;25454;49.878;8.618;2023-04-30T14:08:40;21.20;47.90
39779;DHT22;25454;49.878;8.618;2023-04-30T14:13:41;21.10;46.50
39779;DHT22;25454;49.878;8.618;2023-04-30T14:18:41;21.00;47.20
39779;DHT22;25454;49.878;8.618;2023-04-30T14:23:43;20.90;48.30
39779;DHT22;25454;49.878;8.618;2023-04-30T14:28:49;21.10;48.70
39779;DHT22;25454;49.878;8.618;2023-04-30T14:33:49;20.40;49.30
39779;DHT22;25454;49.878;8.618;2023-04-30T14:38:50;20.60;49.30
39779;DHT22;25454;49.878;8.618;2023-04-30T14:43:50;20.70;48.90
39779;DHT22;25454;49.878;8.618;2023-04-30T14:48:52;21.00;48.90
39779;DHT22;25454;49.878;8.618;2023-04-30T14:53:53;20.90;48.50
39779;DHT22;25454;49.878;8.618;2023-04-30T14:58:54;20.50;48.30
39779;DHT22;25454;49.878;8.618;2023-04-30T15:03:54;20.20;49.50
39779;DHT22;25454;49.878;8.618;2023-04-30T15:08:55;20.10;49.80
39779;DHT22;25454;49.878;8.618;2023-04-30T15:13:55;20.10;50.70
39779;DHT22;25454;49.878;8.618;2023-04-30T15:18:59;20.10;50.80
39779;DHT22;25454;49.878;8.618;2023-04-30T15:23:59;20.40;50.30
39779;DHT22;25454;49.878;8.618;2023-04-30T15:29:00;20.60;50.50
39779;DHT22;25454;49.878;8.618;2023-04-30T15:39:23;20.40;50.20
39779;DHT22;25454;49.878;8.618;2023-04-30T15:44:34;19.90;50.50
39779;DHT22;25454;49.878;8.618;2023-04-30T15:49:35;19.70;51.10
39779;DHT22;25454;49.878;8.618;2023-04-30T15:54:44;19.70;52.20
39779;DHT22;25454;49.878;8.618;2023-04-30T16:00:23;19.70;52.20
39779;DHT22;25454;49.878;8.618;2023-04-30T16:05:52;19.80;50.20
39779;DHT22;25454;49.878;8.618;2023-04-30T16:10:53;19.70;50.60
39779;DHT22;25454;49.878;8.618;2023-04-30T16:15:54;19.50;51.00
39779;DHT22;25454;49.878;8.618;2023-04-30T16:21:10;19.50;52.00
39779;DHT22;25454;49.878;8.618;2023-04-30T16:26:23;19.50;52.10
39779;DHT22;25454;49.878;8.618;2023-04-30T16:31:24;19.30;51.80
39779;DHT22;25454;49.878;8.618;2023-04-30T16:36:25;19.30;52.50
39779;DHT22;25454;49.878;8.618;2023-04-30T16:41:36;19.20;51.90
39779;DHT22;25454;49.878;8.618;2023-04-30T16:52:30;19.00;53.10
39779;DHT22;25454;49.878;8.618;2023-04-30T16:57:47;18.90;53.60
39779;DHT22;25454;49.878;8.618;2023-04-30T17:03:00;18.80;53.90
39779;DHT22;25454;49.878;8.618;2023-04-30T17:08:09;18.80;54.50
39779;DHT22;25454;49.878;8.618;2023-04-30T17:13:23;18.90;54.60
39779;DHT22;25454;49.878;8.618;2023-04-30T17:18:23;18.80;54.40
39779;DHT22;25454;49.878;8.618;2023-04-30T17:23:53;18.80;53.70
39779;DHT22;25454;49.878;8.618;2023-04-30T17:29:10;18.70;53.80
39779;DHT22;25454;49.878;8.618;2023-04-30T17:34:11;18.60;54.30
39779;DHT22;25454;49.878;8.618;2023-04-30T17:39:12;18.60;54.30
39779;DHT22;25454;49.878;8.618;2023-04-30T17:44:12;18.50;55.90
39779;DHT22;25454;49.878;8.618;2023-04-30T17:49:13;18.40;57.20
39779;DHT22;25454;49.878;8.618;2023-04-30T17:54:13;18.30;58.90
39779;DHT22;25454;49.878;8.618;2023-04-30T17:59:14;18.20;59.60
39779;DHT22;25454;49.878;8.618;2023-04-30T18:04:18;18.00;58.80
39779;DHT22;25454;49.878;8.618;2023-04-30T18:09:19;18.00;59.90
39779;DHT22;25454;49.878;8.618;2023-04-30T18:14:20;17.90;61.30
39779;DHT22;25454;49.878;8.618;2023-04-30T18:19:21;17.70;62.20
39779;DHT22;25454;49.878;8.618;2023-04-30T18:24:22;17.50;61.60
39779;DHT22;25454;49.878;8.618;2023-04-30T18:29:27;17.40;61.90
39779;DHT22;25454;49.878;8.618;2023-04-30T18:34:27;17.40;62.60
39779;DHT22;25454;49.878;8.618;2023-04-30T18:39:28;17.20;62.60
39779;DHT22;25454;49.878;8.618;2023-04-30T18:44:30;17.00;62.60
39779;DHT22;25454;49.878;8.618;2023-04-30T18:49:31;16.80;63.90
39779;DHT22;25454;49.878;8.618;2023-04-30T18:54:32;16.70;64.20
39779;DHT22;25454;49.878;8.618;2023-04-30T18:59:33;16.60;66.40
39779;DHT22;25454;49.878;8.618;2023-04-30T19:04:44;16.50;66.50
39779;DHT22;25454;49.878;8.618;2023-04-30T19:09:45;16.40;67.10
39779;DHT22;25454;49.878;8.618;2023-04-30T19:14:47;16.30;67.40
39779;DHT22;25454;49.878;8.618;2023-04-30T19:19:48;16.20;68.30
39779;DHT22;25454;49.878;8.618;2023-04-30T19:24:49;16.10;68.70
39779;DHT22;25454;49.878;8.618;2023-04-30T19:29:51;16.00;69.30
39779;DHT22;25454;49.878;8.618;2023-04-30T19:34:56;15.90;69.90
39779;DHT22;25454;49.878;8.618;2023-04-30T19:39:58;15.80;70.70
39779;DHT22;25454;49.878;8.618;2023-04-30T19:44:58;15.80;71.50
39779;DHT22;25454;49.878;8.618;2023-04-30T19:49:59;15.70;72.20
39779;DHT22;25454;49.878;8.618;2023-04-30T19:54:59;15.50;73.10
39779;DHT22;25454;49.878;8.618;2023-04-30T20:00:01;15.40;74.10
39779;DHT22;25454;49.878;8.618;2023-04-30T20:05:05;15.30;74.60
39779;DHT22;25454;49.878;8.618;2023-04-30T20:10:06;15.20;75.30
39779;DHT22;25454;49.878;8.618;2023-04-30T20:15:09;15.10;76.10
39779;DHT22;25454;49.878;8.618;2023-04-30T20:20:10;15.10;76.80
39779;DHT22;25454;49.878;8.618;2023-04-30T20:25:11;15.10;77.40
39779;DHT22;25454;49.878;8.618;2023-04-30T20:30:12;15.10;78.20
39779;DHT22;25454;49.878;8.618;2023-04-30T20:35:13;15.00;78.60
39779;DHT22;25454;49.878;8.618;2023-04-30T20:40:13;15.00;79.00
39779;DHT22;25454;49.878;8.618;2023-04-30T20:45:14;15.00;79.50
39779;DHT22;25454;49.878;8.618;2023-04-30T20:50:15;14.90;80.30
39779;DHT22;25454;49.878;8.618;2023-04-30T20:55:16;14.80;80.80
39779;DHT22;25454;49.878;8.618;2023-04-30T21:00:16;14.70;81.50
39779;DHT22;25454;49.878;8.618;2023-04-30T21:05:17;14.70;82.10
39779;DHT22;25454;49.878;8.618;2023-04-30T21:10:18;14.60;82.90
39779;DHT22;25454;49.878;8.618;2023-04-30T21:15:18;14.50;84.00
39779;DHT22;25454;49.878;8.618;2023-04-30T21:20:19;14.50;84.40
39779;DHT22;25454;49.878;8.618;2023-04-30T21:25:20;14.50;85.10
39779;DHT22;25454;49.878;8.618;2023-04-30T21:30:21;14.40;86.40
39779;DHT22;25454;49.878;8.618;2023-04-30T21:35:23;14.40;86.20
39779;DHT22;25454;49.878;8.618;2023-04-30T21:40:23;14.40;87.30
39779;DHT22;25454;49.878;8.618;2023-04-30T21:45:33;14.40;86.80
39779;DHT22;25454;49.878;8.618;2023-04-30T21:50:34;14.40;87.20
39779;DHT22;25454;49.878;8.618;2023-04-30T21:55:35;14.40;87.70
39779;DHT22;25454;49.878;8.618;2023-04-30T22:00:35;14.40;87.90
39779;DHT22;25454;49.878;8.618;2023-04-30T22:05:37;14.30;88.50
39779;DHT22;25454;49.878;8.618;2023-04-30T22:10:39;14.30;88.50
39779;DHT22;25454;49.878;8.618;2023-04-30T22:15:39;14.30;88.70
39779;DHT22;25454;49.878;8.618;2023-04-30T22:20:40;14.20;88.80
39779;DHT22;25454;49.878;8.618;2023-04-30T22:25:41;14.20;88.60
39779;DHT22;25454;49.878;8.618;2023-04-30T22:30:41;14.10;89.60
39779;DHT22;25454;49.878;8.618;2023-04-30T22:35:42;14.10;88.80
39779;DHT22;25454;49.878;8.618;2023-04-30T22:40:43;14.10;89.20
39779;DHT22;25454;49.878;8.618;2023-04-30T22:45:44;14.00;89.90
39779;DHT22;25454;49.878;8.618;2023-04-30T22:50:45;13.90;90.10
39779;DHT22;25454;49.878;8.618;2023-04-30T22:55:49;13.80;90.30
39779;DHT22;25454;49.878;8.618;2023-04-30T23:00:50;13.70;90.50
39779;DHT22;25454;49.878;8.618;2023-04-30T23:05:50;13.60;90.60
39779;DHT22;25454;49.878;8.618;2023-04-30T23:10:51;13.50;90.80
39779;DHT22;25454;49.878;8.618;2023-04-30T23:15:56;13.40;90.80
39779;DHT22;25454;49.878;8.618;2023-04-30T23:20:58;13.50;90.70
39779;DHT22;25454;49.878;8.618;2023-04-30T23:25:59;13.50;90.70
39779;DHT22;25454;49.878;8.618;2023-04-30T23:31:00;13.40;90.90
39779;DHT22;25454;49.878;8.618;2023-04-30T23:36:00;13.30;90.90
39779;DHT22;25454;49.878;8.618;2023-04-30T23:41:01;13.20;90.90
39779;DHT22;25454;49.878;8.618;2023-04-30T23:46:02;13.30;91.20
39779;DHT22;25454;49.878;8.618;2023-04-30T23:51:04;13.20;91.20
39779;DHT22;25454;49.878;8.618;2023-04-30T23:56:08;13.10;91.30
